Time;durP1;ratioP1;P1;durP2;ratioP2;P2;SDS_P1;SDS_P2;PMS_P1;PMS_P2;Temp;Humidity;BMP_temperature;BMP_pressure;BME280_temperature;BME280_humidity;BME280_pressure;Samples;Min_cycle;Max_cycle;Signal;HPM_P1;HPM_P2
2021/12/11 00:00:56;;;;;;;24.13;14.18;;;;;;;;;;5113025;28;20093;-66
2021/12/11 00:03:25;;;;;;;24.38;13.25;;;;;;;;;;5113871;28;20036;-66
2021/12/11 00:05:52;;;;;;;24.33;13.35;;;;;;;;;;5111609;28;20039;-66
2021/12/11 00:08:20;;;;;;;22.95;12.75;;;;;;;;;;5113296;28;20035;-66
2021/12/11 00:10:48;;;;;;;20.73;12.88;;;;;;;;;;5094846;28;20411;-67
2021/12/11 00:13:17;;;;;;;23.20;12.80;;;;;;;;;;5113524;28;20040;-66
2021/12/11 00:15:44;;;;;;;24.48;13.93;;;;;;;;;;5113322;28;20396;-66
2021/12/11 00:18:12;;;;;;;24.40;14.32;;;;;;;;;;5095332;28;20050;-66
2021/12/11 00:20:42;;;;;;;24.08;13.82;;;;;;;;;;5094196;28;20275;-66
2021/12/11 00:23:08;;;;;;;26.67;15.00;;;;;;;;;;5111240;28;20084;-66
2021/12/11 00:25:41;;;;;;;25.58;16.02;;;;;;;;;;5113179;28;20047;-66
2021/12/11 00:28:08;;;;;;;28.55;14.20;;;;;;;;;;5113490;28;20042;-66
2021/12/11 00:30:38;;;;;;;20.83;13.45;;;;;;;;;;5112466;28;20067;-66
2021/12/11 00:33:24;;;;;;;22.30;13.70;;;;;;;;;;5093941;28;20059;-66
2021/12/11 00:35:51;;;;;;;23.50;14.07;;;;;;;;;;5095582;28;20039;-66
2021/12/11 00:38:19;;;;;;;26.70;14.93;;;;;;;;;;5113113;28;20528;-66
2021/12/11 00:40:46;;;;;;;21.73;13.00;;;;;;;;;;5112178;28;20497;-66
2021/12/11 00:43:17;;;;;;;26.33;14.63;;;;;;;;;;5094254;28;20035;-66
2021/12/11 00:45:43;;;;;;;29.38;16.75;;;;;;;;;;5112413;28;20035;-66
2021/12/11 00:48:11;;;;;;;30.13;17.88;;;;;;;;;;5094168;28;20054;-66
2021/12/11 00:50:40;;;;;;;30.35;16.30;;;;;;;;;;5092274;28;20473;-66
2021/12/11 00:53:12;;;;;;;29.33;16.30;;;;;;;;;;5111977;28;20051;-66
2021/12/11 00:55:39;;;;;;;25.42;15.30;;;;;;;;;;5103634;28;20275;-66
2021/12/11 00:58:17;;;;;;;29.50;17.08;;;;;;;;;;5112277;28;20511;-66
2021/12/11 01:00:46;;;;;;;31.90;15.82;;;;;;;;;;5112630;28;20043;-66
2021/12/11 01:03:16;;;;;;;29.67;15.93;;;;;;;;;;5112432;28;20039;-66
2021/12/11 01:05:43;;;;;;;25.50;14.93;;;;;;;;;;5111519;28;20039;-66
2021/12/11 01:08:39;;;;;;;24.83;14.35;;;;;;;;;;5093913;28;20067;-66
2021/12/11 01:11:05;;;;;;;22.85;14.05;;;;;;;;;;5079524;28;20031;-66
2021/12/11 01:13:33;;;;;;;24.73;14.90;;;;;;;;;;5112519;28;20040;-66
2021/12/11 01:16:05;;;;;;;30.70;16.40;;;;;;;;;;5111384;28;20446;-66
2021/12/11 01:18:37;;;;;;;30.65;17.25;;;;;;;;;;5111288;28;20031;-66
2021/12/11 01:26:34;;;;;;;22.73;13.80;;;;;;;;;;5107893;28;20137;-66
2021/12/11 01:29:00;;;;;;;24.50;13.77;;;;;;;;;;5112178;28;20042;-66
2021/12/11 01:31:27;;;;;;;24.88;13.43;;;;;;;;;;5111456;28;20048;-66
2021/12/11 01:33:54;;;;;;;22.65;13.60;;;;;;;;;;5111997;28;20036;-66
2021/12/11 01:36:20;;;;;;;24.50;13.00;;;;;;;;;;5082817;28;20040;-66
2021/12/11 01:38:46;;;;;;;21.10;12.15;;;;;;;;;;5110585;28;20042;-66
2021/12/11 01:41:16;;;;;;;23.95;13.18;;;;;;;;;;5093327;28;20050;-65
2021/12/11 01:43:43;;;;;;;23.73;12.02;;;;;;;;;;5112005;28;20050;-66
2021/12/11 01:46:10;;;;;;;22.63;13.35;;;;;;;;;;5111590;28;20074;-66
2021/12/11 01:48:38;;;;;;;22.73;13.05;;;;;;;;;;5111736;28;20040;-66
2021/12/11 01:51:11;;;;;;;22.40;12.63;;;;;;;;;;5110614;28;20040;-66
2021/12/11 01:53:42;;;;;;;22.13;13.23;;;;;;;;;;5107468;28;21160;-66
2021/12/11 01:56:10;;;;;;;21.42;12.60;;;;;;;;;;5107123;28;20043;-66
2021/12/11 01:58:39;;;;;;;23.50;12.07;;;;;;;;;;5099104;28;20420;-66
2021/12/11 02:01:09;;;;;;;22.85;13.90;;;;;;;;;;5103932;28;20089;-66
2021/12/11 02:03:36;;;;;;;28.55;15.27;;;;;;;;;;5107687;28;20035;-66
2021/12/11 02:06:03;;;;;;;26.83;15.50;;;;;;;;;;5102505;28;20480;-66
2021/12/11 02:08:30;;;;;;;26.90;15.15;;;;;;;;;;5104235;28;20043;-66
2021/12/11 02:11:12;;;;;;;27.70;14.68;;;;;;;;;;5103246;28;20389;-66
2021/12/11 02:13:47;;;;;;;22.35;13.23;;;;;;;;;;5100625;28;20031;-65
2021/12/11 02:16:25;;;;;;;23.05;13.65;;;;;;;;;;5101277;28;20058;-66
2021/12/11 02:18:58;;;;;;;26.58;14.77;;;;;;;;;;5101299;28;20389;-66
2021/12/11 02:21:28;;;;;;;23.85;14.68;;;;;;;;;;5102440;28;20046;-66
2021/12/11 02:24:02;;;;;;;22.80;13.32;;;;;;;;;;5097187;28;20047;-66
2021/12/11 02:26:28;;;;;;;24.15;13.77;;;;;;;;;;5099956;28;20411;-65
2021/12/11 02:29:08;;;;;;;23.60;13.20;;;;;;;;;;5102676;28;20111;-66
2021/12/11 02:31:37;;;;;;;24.20;13.13;;;;;;;;;;5110398;28;20206;-66
2021/12/11 02:34:09;;;;;;;24.38;13.40;;;;;;;;;;5090088;28;20044;-66
2021/12/11 02:36:55;;;;;;;22.65;13.43;;;;;;;;;;5097342;28;20480;-65
2021/12/11 02:39:28;;;;;;;24.90;14.57;;;;;;;;;;5111519;28;20049;-65
2021/12/11 02:41:57;;;;;;;25.10;13.05;;;;;;;;;;5092468;28;20067;-66
2021/12/11 02:44:26;;;;;;;20.70;12.18;;;;;;;;;;5093108;28;20047;-66
2021/12/11 02:47:01;;;;;;;25.50;13.85;;;;;;;;;;5109097;28;20036;-66
2021/12/11 02:49:32;;;;;;;22.35;13.45;;;;;;;;;;5093253;28;20093;-66
2021/12/11 02:52:01;;;;;;;22.25;12.80;;;;;;;;;;5110602;28;20040;-66
2021/12/11 02:54:36;;;;;;;22.58;12.63;;;;;;;;;;5099201;28;20517;-66
2021/12/11 02:57:04;;;;;;;21.73;13.27;;;;;;;;;;5111059;28;20120;-66
2021/12/11 02:59:37;;;;;;;23.80;12.98;;;;;;;;;;5111045;28;20043;-66
2021/12/11 03:02:14;;;;;;;20.17;12.65;;;;;;;;;;5106232;28;20035;-66
2021/12/11 03:04:49;;;;;;;23.15;12.90;;;;;;;;;;5109512;28;20048;-66
2021/12/11 03:07:16;;;;;;;23.45;12.82;;;;;;;;;;5095048;28;20031;-66
2021/12/11 03:09:47;;;;;;;22.27;12.52;;;;;;;;;;5113816;28;20040;-66
2021/12/11 03:12:15;;;;;;;24.27;12.95;;;;;;;;;;5114697;28;20493;-65
2021/12/11 03:14:41;;;;;;;20.25;11.75;;;;;;;;;;5114770;28;20096;-66
2021/12/11 03:17:08;;;;;;;19.27;12.90;;;;;;;;;;5113833;28;20046;-66
2021/12/11 03:19:35;;;;;;;26.15;12.60;;;;;;;;;;5095795;28;20052;-66
2021/12/11 03:22:05;;;;;;;21.35;12.82;;;;;;;;;;5113898;28;20043;-66
2021/12/11 03:24:33;;;;;;;20.40;12.65;;;;;;;;;;5114904;28;20039;-66
2021/12/11 03:26:59;;;;;;;25.02;13.30;;;;;;;;;;5113390;28;20027;-66
2021/12/11 03:29:26;;;;;;;22.60;12.45;;;;;;;;;;5114734;28;20039;-66
2021/12/11 03:31:52;;;;;;;24.25;12.63;;;;;;;;;;5114105;28;20043;-66
2021/12/11 03:34:20;;;;;;;20.05;12.25;;;;;;;;;;5112516;28;20050;-66
2021/12/11 03:36:47;;;;;;;25.60;12.38;;;;;;;;;;5114452;28;20054;-66
2021/12/11 03:39:17;;;;;;;20.42;11.63;;;;;;;;;;5113967;28;20107;-66
2021/12/11 03:41:44;;;;;;;21.88;12.10;;;;;;;;;;5113899;28;20040;-66
2021/12/11 03:44:11;;;;;;;21.48;11.82;;;;;;;;;;5114382;28;20085;-66
2021/12/11 03:46:37;;;;;;;19.75;11.73;;;;;;;;;;5113026;28;20031;-66
2021/12/11 03:49:08;;;;;;;22.90;12.05;;;;;;;;;;5113621;28;20067;-66
2021/12/11 03:51:46;;;;;;;18.75;12.25;;;;;;;;;;5114188;28;20043;-66
2021/12/11 03:54:17;;;;;;;20.48;11.63;;;;;;;;;;5095962;28;20400;-66
2021/12/11 03:56:43;;;;;;;20.90;12.45;;;;;;;;;;5112960;28;20039;-66
2021/12/11 03:59:11;;;;;;;21.33;11.52;;;;;;;;;;5113848;28;20085;-65
2021/12/11 04:01:41;;;;;;;20.30;12.35;;;;;;;;;;5113201;28;20035;-65
2021/12/11 04:04:15;;;;;;;20.75;12.05;;;;;;;;;;5113920;28;20046;-66
2021/12/11 04:06:41;;;;;;;25.58;13.05;;;;;;;;;;5112766;28;20457;-66
2021/12/11 04:09:09;;;;;;;23.30;12.90;;;;;;;;;;5113901;28;20429;-66
2021/12/11 04:11:35;;;;;;;23.88;13.27;;;;;;;;;;5112349;28;20043;-65
2021/12/11 04:14:04;;;;;;;19.95;12.52;;;;;;;;;;5095050;28;20047;-66
2021/12/11 04:16:30;;;;;;;24.00;12.43;;;;;;;;;;5112648;28;20035;-65
2021/12/11 04:18:56;;;;;;;20.02;12.65;;;;;;;;;;5113575;28;20412;-66
2021/12/11 04:21:22;;;;;;;25.65;13.57;;;;;;;;;;5112454;28;20031;-65
2021/12/11 04:23:48;;;;;;;21.70;13.25;;;;;;;;;;5113572;28;20043;-65
2021/12/11 04:26:15;;;;;;;22.38;13.93;;;;;;;;;;5113243;28;20031;-66
2021/12/11 04:28:42;;;;;;;26.42;14.05;;;;;;;;;;5113481;28;20047;-65
2021/12/11 04:31:13;;;;;;;19.00;12.20;;;;;;;;;;5109364;28;20386;-66
2021/12/11 04:33:42;;;;;;;21.67;12.20;;;;;;;;;;5093496;28;20043;-65
2021/12/11 04:36:10;;;;;;;23.58;12.52;;;;;;;;;;5109372;28;20118;-65
2021/12/11 04:38:37;;;;;;;25.20;12.93;;;;;;;;;;5112999;28;20031;-65
2021/12/11 04:41:04;;;;;;;20.50;13.00;;;;;;;;;;5112614;28;20063;-65
2021/12/11 04:43:30;;;;;;;22.45;12.68;;;;;;;;;;5113375;28;20237;-65
2021/12/11 04:45:59;;;;;;;20.48;12.57;;;;;;;;;;5093501;28;20086;-65
2021/12/11 04:51:22;;;;;;;23.77;12.65;;;;;;;;;;5103205;28;20443;-65
2021/12/11 05:04:56;;;;;;;22.20;12.47;;;;;;;;;;5106986;28;20096;-65
2021/12/11 05:07:39;;;;;;;26.07;13.20;;;;;;;;;;5109771;28;20379;-65
2021/12/11 05:10:34;;;;;;;23.17;12.63;;;;;;;;;;5112444;28;20043;-65
2021/12/11 05:12:56;;;;;;;;;;;;;;;;;;5110557;28;20417;-65
2021/12/11 05:15:24;;;;;;;21.50;11.73;;;;;;;;;;5092186;28;19916;-65
2021/12/11 05:17:50;;;;;;;21.93;12.77;;;;;;;;;;5111602;28;20059;-66
2021/12/11 05:20:19;;;;;;;23.20;13.63;;;;;;;;;;5119172;22;20046;-73
2021/12/11 05:22:45;;;;;;;21.43;12.20;;;;;;;;;;5087654;28;20543;-73
2021/12/11 05:25:12;;;;;;;22.80;13.83;;;;;;;;;;5089335;28;20040;-72
2021/12/11 05:27:39;;;;;;;22.17;13.03;;;;;;;;;;5076316;28;20041;-72
2021/12/11 05:30:08;;;;;;;18.63;11.17;;;;;;;;;;5086167;28;20044;-72
2021/12/11 05:32:34;;;;;;;22.08;12.07;;;;;;;;;;5091130;28;20071;-71
2021/12/11 05:35:00;;;;;;;18.93;11.43;;;;;;;;;;5091308;28;20066;-71
2021/12/11 05:37:26;;;;;;;24.73;13.00;;;;;;;;;;5090702;28;20032;-72
2021/12/11 05:39:52;;;;;;;23.80;13.20;;;;;;;;;;5092023;28;20042;-71
2021/12/11 05:42:18;;;;;;;23.07;12.90;;;;;;;;;;5091651;28;20067;-71
2021/12/11 05:44:45;;;;;;;24.40;13.37;;;;;;;;;;5091316;28;20047;-71
2021/12/11 05:47:11;;;;;;;26.53;13.83;;;;;;;;;;5095783;28;20481;-72
2021/12/11 05:49:37;;;;;;;22.77;14.07;;;;;;;;;;5101904;28;20760;-72
2021/12/11 05:52:05;;;;;;;24.43;14.10;;;;;;;;;;5090603;28;20044;-71
2021/12/11 05:54:32;;;;;;;26.17;12.60;;;;;;;;;;5077111;28;20052;-71
2021/12/11 05:57:02;;;;;;;19.83;10.97;;;;;;;;;;5071327;28;20040;-72
2021/12/11 05:59:30;;;;;;;27.52;14.23;;;;;;;;;;5084238;28;20578;-72
2021/12/11 06:02:03;;;;;;;31.73;16.00;;;;;;;;;;5091035;28;20494;-71
2021/12/11 06:04:32;;;;;;;30.67;16.47;;;;;;;;;;5091212;28;20048;-71
2021/12/11 06:06:59;;;;;;;26.90;15.00;;;;;;;;;;5090542;28;20036;-72
2021/12/11 06:09:26;;;;;;;27.60;14.67;;;;;;;;;;5091729;28;20128;-71
2021/12/11 06:11:53;;;;;;;28.07;14.70;;;;;;;;;;5091036;28;20036;-71
2021/12/11 06:14:20;;;;;;;27.50;14.97;;;;;;;;;;5087685;28;20109;-71
2021/12/11 06:16:47;;;;;;;29.50;15.37;;;;;;;;;;5082750;28;20043;-72
2021/12/11 06:19:13;;;;;;;27.80;15.13;;;;;;;;;;5084250;28;20534;-72
2021/12/11 06:21:40;;;;;;;34.83;15.70;;;;;;;;;;5087759;28;20040;-71
2021/12/11 06:24:06;;;;;;;25.43;13.67;;;;;;;;;;5090954;28;20036;-71
2021/12/11 06:26:33;;;;;;;28.35;14.98;;;;;;;;;;5086651;28;20063;-72
2021/12/11 06:28:59;;;;;;;29.77;15.87;;;;;;;;;;5082658;28;20123;-71
2021/12/11 06:31:26;;;;;;;26.10;15.17;;;;;;;;;;5070768;28;20041;-72
2021/12/11 06:33:53;;;;;;;29.47;15.50;;;;;;;;;;5082417;28;20040;-71
2021/12/11 06:36:20;;;;;;;29.23;17.23;;;;;;;;;;5089284;28;20032;-72
2021/12/11 06:38:47;;;;;;;31.33;15.43;;;;;;;;;;5099738;28;20039;-72
2021/12/11 06:41:16;;;;;;;26.00;14.93;;;;;;;;;;5089855;28;21708;-72
2021/12/11 06:43:42;;;;;;;26.43;16.13;;;;;;;;;;5075870;28;20044;-72
2021/12/11 06:46:09;;;;;;;26.83;14.97;;;;;;;;;;5083747;28;20097;-71
2021/12/11 06:48:35;;;;;;;28.70;14.87;;;;;;;;;;5097898;28;20040;-72
2021/12/11 06:51:01;;;;;;;29.10;15.20;;;;;;;;;;5093957;28;20035;-72
2021/12/11 06:53:31;;;;;;;29.83;16.10;;;;;;;;;;5091521;28;20036;-72
2021/12/11 06:55:57;;;;;;;26.53;13.97;;;;;;;;;;5104084;28;20126;-72
2021/12/11 06:58:25;;;;;;;31.20;15.03;;;;;;;;;;5094237;28;20040;-72
2021/12/11 07:00:51;;;;;;;31.63;16.30;;;;;;;;;;5090507;28;20044;-72
2021/12/11 07:03:17;;;;;;;25.97;15.60;;;;;;;;;;5087834;28;20056;-72
2021/12/11 07:05:44;;;;;;;28.70;14.90;;;;;;;;;;5088821;28;20040;-72
2021/12/11 07:08:12;;;;;;;27.93;15.80;;;;;;;;;;5091855;28;20436;-72
2021/12/11 07:10:39;;;;;;;27.27;14.63;;;;;;;;;;5089683;28;20048;-71
2021/12/11 07:13:05;;;;;;;27.40;14.20;;;;;;;;;;5089873;28;20040;-71
2021/12/11 07:15:31;;;;;;;29.27;15.00;;;;;;;;;;5091339;28;20490;-71
2021/12/11 07:17:57;;;;;;;25.50;14.67;;;;;;;;;;5090883;28;20047;-70
2021/12/11 07:20:23;;;;;;;26.47;14.30;;;;;;;;;;5089920;28;20470;-71
2021/12/11 07:22:49;;;;;;;32.17;15.13;;;;;;;;;;5091591;28;20128;-71
2021/12/11 07:25:19;;;;;;;32.37;15.63;;;;;;;;;;5090158;28;20054;-70
2021/12/11 07:27:46;;;;;;;30.30;16.30;;;;;;;;;;5094189;28;20047;-71
2021/12/11 07:30:13;;;;;;;31.17;17.17;;;;;;;;;;5091438;28;20092;-70
2021/12/11 07:32:39;;;;;;;32.83;16.70;;;;;;;;;;5090189;28;20517;-70
2021/12/11 07:35:06;;;;;;;31.83;17.30;;;;;;;;;;5090599;28;20281;-71
2021/12/11 07:37:32;;;;;;;29.23;15.93;;;;;;;;;;5074171;28;20497;-71
2021/12/11 07:39:58;;;;;;;27.50;15.37;;;;;;;;;;5091684;28;20519;-72
2021/12/11 07:42:24;;;;;;;30.37;15.07;;;;;;;;;;5089924;28;20386;-71
2021/12/11 07:44:50;;;;;;;26.03;15.37;;;;;;;;;;5087782;28;20043;-70
2021/12/11 07:47:16;;;;;;;26.53;15.83;;;;;;;;;;5093015;28;20089;-71
2021/12/11 07:49:42;;;;;;;25.13;15.37;;;;;;;;;;5090068;28;20123;-71
2021/12/11 07:52:08;;;;;;;24.17;15.13;;;;;;;;;;5086226;28;20043;-71
2021/12/11 07:54:35;;;;;;;26.80;15.10;;;;;;;;;;5093426;28;20044;-71
2021/12/11 07:57:01;;;;;;;25.23;15.60;;;;;;;;;;5092147;28;20039;-71
2021/12/11 07:59:27;;;;;;;27.00;15.40;;;;;;;;;;5080443;28;20036;-71
2021/12/11 08:01:53;;;;;;;27.67;16.50;;;;;;;;;;5092052;28;20047;-71
2021/12/11 08:04:20;;;;;;;31.70;16.47;;;;;;;;;;5092133;28;20044;-71
2021/12/11 08:06:46;;;;;;;27.63;16.20;;;;;;;;;;5083869;28;20097;-71
2021/12/11 08:09:15;;;;;;;31.30;16.73;;;;;;;;;;5088152;28;20047;-71
2021/12/11 08:11:41;;;;;;;30.60;16.93;;;;;;;;;;5093305;28;20592;-71
2021/12/11 08:14:08;;;;;;;38.33;18.40;;;;;;;;;;5088872;28;20482;-71
2021/12/11 08:16:44;;;;;;;33.60;17.03;;;;;;;;;;5084423;28;20040;-71
2021/12/11 08:19:10;;;;;;;42.57;19.13;;;;;;;;;;5090114;28;20043;-71
2021/12/11 08:21:36;;;;;;;41.90;19.77;;;;;;;;;;5096518;28;20036;-71
2021/12/11 08:24:05;;;;;;;37.67;19.33;;;;;;;;;;5085125;28;20089;-71
2021/12/11 08:26:32;;;;;;;41.13;19.60;;;;;;;;;;5082517;28;20098;-70
2021/12/11 08:28:58;;;;;;;36.23;18.70;;;;;;;;;;5085276;28;20071;-71
2021/12/11 08:31:24;;;;;;;33.27;18.60;;;;;;;;;;5084321;28;20551;-72
2021/12/11 08:33:50;;;;;;;34.40;20.10;;;;;;;;;;5090846;28;20036;-71
2021/12/11 08:36:16;;;;;;;32.97;18.83;;;;;;;;;;5081878;28;20036;-71
2021/12/11 08:38:43;;;;;;;35.67;19.30;;;;;;;;;;5092979;28;20085;-75
2021/12/11 08:41:10;;;;;;;36.17;20.50;;;;;;;;;;5091950;28;20043;-70
2021/12/11 08:43:36;;;;;;;32.73;18.10;;;;;;;;;;5089811;28;20040;-71
2021/12/11 08:46:10;;;;;;;31.67;18.40;;;;;;;;;;5092499;28;20055;-72
2021/12/11 08:48:42;;;;;;;32.83;17.80;;;;;;;;;;5090450;28;20032;-72
2021/12/11 08:51:12;;;;;;;33.57;18.20;;;;;;;;;;5088470;28;20101;-72
2021/12/11 08:53:38;;;;;;;34.47;18.77;;;;;;;;;;5088381;28;20047;-71
2021/12/11 08:56:06;;;;;;;32.33;17.53;;;;;;;;;;5092916;28;20082;-71
2021/12/11 08:58:32;;;;;;;33.77;19.33;;;;;;;;;;5091843;28;20044;-71
2021/12/11 09:00:58;;;;;;;31.35;18.38;;;;;;;;;;5091543;28;20036;-71
2021/12/11 09:03:30;;;;;;;30.37;18.00;;;;;;;;;;5100614;28;20137;-71
2021/12/11 09:05:59;;;;;;;35.10;19.52;;;;;;;;;;5097065;28;20050;-71
2021/12/11 09:08:28;;;;;;;35.87;19.70;;;;;;;;;;5071493;28;20024;-72
2021/12/11 09:11:01;;;;;;;35.58;19.55;;;;;;;;;;5101325;28;20445;-72
2021/12/11 09:13:32;;;;;;;36.63;19.60;;;;;;;;;;5096988;28;20036;-72
2021/12/11 09:15:58;;;;;;;;;;;;;;;;;;5092870;28;20036;-70
2021/12/11 09:18:33;;;;;;;40.53;21.10;;;;;;;;;;5078437;28;19916;-70
2021/12/11 09:21:05;;;;;;;40.53;21.43;;;;;;;;;;5090249;28;20123;-71
2021/12/11 09:23:45;;;;;;;40.83;22.40;;;;;;;;;;5077469;28;20040;-72
2021/12/11 09:26:12;;;;;;;48.05;25.00;;;;;;;;;;5082131;28;20122;-72
2021/12/11 09:28:43;;;;;;;47.40;23.95;;;;;;;;;;5087627;28;20040;-71
2021/12/11 09:31:15;;;;;;;45.83;25.13;;;;;;;;;;5092188;28;20048;-71
2021/12/11 09:33:45;;;;;;;40.63;23.27;;;;;;;;;;5084074;28;20040;-71
2021/12/11 09:36:12;;;;;;;44.53;24.77;;;;;;;;;;5079621;28;20040;-70
2021/12/11 09:38:43;;;;;;;47.43;25.60;;;;;;;;;;5090862;28;20440;-70
2021/12/11 09:41:20;;;;;;;47.10;24.75;;;;;;;;;;5088198;28;20032;-70
2021/12/11 09:43:53;;;;;;;44.58;24.80;;;;;;;;;;5091143;28;20055;-70
2021/12/11 09:46:21;;;;;;;43.22;25.02;;;;;;;;;;5080824;28;20032;-71
2021/12/11 09:48:48;;;;;;;56.58;25.52;;;;;;;;;;5090068;28;20430;-70
2021/12/11 09:51:16;;;;;;;46.80;25.23;;;;;;;;;;5086647;28;20495;-71
2021/12/11 09:53:45;;;;;;;40.90;24.35;;;;;;;;;;5088392;28;20047;-71
2021/12/11 09:56:14;;;;;;;44.97;23.85;;;;;;;;;;5090520;28;20035;-71
2021/12/11 09:58:40;;;;;;;45.45;24.40;;;;;;;;;;5090940;28;20044;-71
2021/12/11 10:01:09;;;;;;;46.30;25.10;;;;;;;;;;5087667;28;20028;-71
2021/12/11 10:03:40;;;;;;;44.60;24.77;;;;;;;;;;5085550;28;20069;-71
2021/12/11 10:06:14;;;;;;;41.35;22.85;;;;;;;;;;5083661;28;20047;-70
2021/12/11 10:08:46;;;;;;;47.95;26.13;;;;;;;;;;5087922;28;20050;-71
2021/12/11 10:11:12;;;;;;;42.08;23.95;;;;;;;;;;5085430;28;20052;-71
2021/12/11 10:13:44;;;;;;;48.95;26.42;;;;;;;;;;5090669;28;20121;-70
2021/12/11 10:16:11;;;;;;;48.50;25.60;;;;;;;;;;5084934;28;20494;-72
2021/12/11 10:18:37;;;;;;;47.65;25.58;;;;;;;;;;5095437;28;20035;-72
2021/12/11 10:21:10;;;;;;;51.72;27.77;;;;;;;;;;5093806;28;20467;-72
2021/12/11 10:23:37;;;;;;;49.00;25.45;;;;;;;;;;5088186;28;20490;-72
2021/12/11 10:26:10;;;;;;;48.30;27.50;;;;;;;;;;5093410;28;20077;-72
2021/12/11 10:28:36;;;;;;;48.92;25.83;;;;;;;;;;5090109;28;20032;-71
2021/12/11 10:31:08;;;;;;;48.22;25.88;;;;;;;;;;5087215;28;20198;-71
2021/12/11 10:33:34;;;;;;;54.55;28.02;;;;;;;;;;5082200;28;20472;-69
2021/12/11 10:36:04;;;;;;;55.60;27.45;;;;;;;;;;5086993;28;20050;-73
2021/12/11 10:38:30;;;;;;;44.05;24.58;;;;;;;;;;5079762;28;20043;-72
2021/12/11 10:40:57;;;;;;;47.92;26.23;;;;;;;;;;5081216;28;20583;-73
2021/12/11 10:43:28;;;;;;;50.50;27.70;;;;;;;;;;5083742;28;20037;-73
2021/12/11 10:45:56;;;;;;;53.03;26.40;;;;;;;;;;5089189;28;20040;-71
2021/12/11 10:48:27;;;;;;;54.47;28.33;;;;;;;;;;5082532;28;20047;-72
2021/12/11 10:50:53;;;;;;;;;;;;;;;;;;5081669;28;20098;-71
2021/12/11 10:53:21;;;;;;;54.85;27.13;;;;;;;;;;5088418;28;20377;-71
2021/12/11 10:55:48;;;;;;;48.45;26.63;;;;;;;;;;5094209;28;20660;-71
2021/12/11 10:58:16;;;;;;;48.78;27.55;;;;;;;;;;5087347;28;20044;-72
2021/12/11 11:00:50;;;;;;;53.22;26.38;;;;;;;;;;5083231;28;20048;-72
2021/12/11 11:03:17;;;;;;;54.55;27.30;;;;;;;;;;5091542;28;20039;-72
2021/12/11 11:05:43;;;;;;;56.88;28.25;;;;;;;;;;5090544;28;20036;-72
2021/12/11 11:08:09;;;;;;;55.00;28.70;;;;;;;;;;5084675;28;20067;-71
2021/12/11 11:10:38;;;;;;;54.42;28.10;;;;;;;;;;5084666;28;20060;-71
2021/12/11 11:13:06;;;;;;;54.38;28.00;;;;;;;;;;5089580;28;20032;-71
2021/12/11 11:15:32;;;;;;;53.55;27.95;;;;;;;;;;5092164;28;20048;-71
2021/12/11 11:17:58;;;;;;;55.92;30.35;;;;;;;;;;5089312;28;20576;-70
2021/12/11 11:22:55;;;;;;;60.80;31.25;;;;;;;;;;5089347;28;20048;-65
2021/12/11 11:25:25;;;;;;;57.90;30.80;;;;;;;;;;5092413;28;20058;-65
2021/12/11 11:27:54;;;;;;;55.22;30.00;;;;;;;;;;5094258;28;20036;-65
2021/12/11 11:30:27;;;;;;;59.50;31.73;;;;;;;;;;5092996;28;20056;-65
2021/12/11 11:32:54;;;;;;;60.50;31.58;;;;;;;;;;5095442;28;20047;-65
2021/12/11 11:35:22;;;;;;;62.13;30.00;;;;;;;;;;5094706;28;20055;-65
2021/12/11 11:37:50;;;;;;;51.45;27.73;;;;;;;;;;5091176;28;20043;-65
2021/12/11 11:40:20;;;;;;;54.00;28.48;;;;;;;;;;5089028;28;20129;-65
2021/12/11 11:42:46;;;;;;;53.92;28.23;;;;;;;;;;5088411;28;20039;-65
2021/12/11 11:45:12;;;;;;;55.40;29.52;;;;;;;;;;5091093;28;20028;-65
2021/12/11 11:47:39;;;;;;;56.03;30.63;;;;;;;;;;5090739;28;20126;-65
2021/12/11 11:50:06;;;;;;;58.88;31.88;;;;;;;;;;5093244;28;20040;-65
2021/12/11 11:52:33;;;;;;;63.10;33.10;;;;;;;;;;5093306;28;20043;-64
2021/12/11 11:55:00;;;;;;;56.17;31.13;;;;;;;;;;5090731;28;20028;-65
2021/12/11 11:57:28;;;;;;;55.65;30.92;;;;;;;;;;5093221;28;20032;-65
2021/12/11 11:59:55;;;;;;;51.83;28.25;;;;;;;;;;5087586;28;20078;-64
2021/12/11 12:02:24;;;;;;;52.65;29.60;;;;;;;;;;5089001;28;20040;-64
2021/12/11 12:04:51;;;;;;;51.30;28.63;;;;;;;;;;5083376;28;20134;-64
2021/12/11 12:07:24;;;;;;;55.35;29.02;;;;;;;;;;5088679;28;20039;-64
2021/12/11 12:09:51;;;;;;;51.88;27.52;;;;;;;;;;5092174;28;20036;-64
2021/12/11 12:12:17;;;;;;;50.58;27.30;;;;;;;;;;5091439;28;20035;-64
2021/12/11 12:14:44;;;;;;;50.00;27.15;;;;;;;;;;5091627;28;20039;-64
2021/12/11 12:17:13;;;;;;;46.60;26.60;;;;;;;;;;5093034;28;20115;-64
2021/12/11 12:19:39;;;;;;;48.35;26.70;;;;;;;;;;5093874;28;20564;-64
2021/12/11 12:22:07;;;;;;;47.95;25.55;;;;;;;;;;5092921;28;20413;-64
2021/12/11 12:24:35;;;;;;;48.97;25.77;;;;;;;;;;5092415;28;20489;-64
2021/12/11 12:27:02;;;;;;;51.40;26.60;;;;;;;;;;5092204;28;20090;-64
2021/12/11 12:29:28;;;;;;;45.95;24.33;;;;;;;;;;5092848;28;20083;-64
2021/12/11 12:31:57;;;;;;;51.47;26.75;;;;;;;;;;5089527;28;20123;-64
2021/12/11 12:34:23;;;;;;;47.65;24.95;;;;;;;;;;5092165;28;20126;-64
2021/12/11 12:36:49;;;;;;;45.17;25.70;;;;;;;;;;5093094;28;20454;-64
2021/12/11 12:39:17;;;;;;;51.28;26.15;;;;;;;;;;5090785;28;20266;-64
2021/12/11 12:41:57;;;;;;;48.10;25.88;;;;;;;;;;5090922;28;20502;-64
2021/12/11 12:44:24;;;;;;;46.78;26.55;;;;;;;;;;5091217;28;20088;-64
2021/12/11 12:47:01;;;;;;;45.50;25.42;;;;;;;;;;5089999;28;20047;-64
2021/12/11 12:49:29;;;;;;;48.25;25.52;;;;;;;;;;5090585;28;20063;-64
2021/12/11 12:51:57;;;;;;;45.22;25.17;;;;;;;;;;5079837;28;20390;-64
2021/12/11 12:54:23;;;;;;;50.75;26.13;;;;;;;;;;5083525;28;20043;-64
2021/12/11 12:57:01;;;;;;;49.65;26.15;;;;;;;;;;5092191;28;20036;-64
2021/12/11 12:59:31;;;;;;;50.15;26.42;;;;;;;;;;5091943;28;20153;-64
2021/12/11 13:02:01;;;;;;;47.60;25.40;;;;;;;;;;5077067;28;20040;-64
2021/12/11 13:04:29;;;;;;;47.00;26.25;;;;;;;;;;5091521;28;20115;-64
2021/12/11 13:06:56;;;;;;;47.33;24.33;;;;;;;;;;5091809;28;20040;-64
2021/12/11 13:09:26;;;;;;;45.53;25.25;;;;;;;;;;5091286;28;20036;-64
2021/12/11 13:12:05;;;;;;;49.28;26.30;;;;;;;;;;5090981;28;20516;-64
2021/12/11 13:14:31;;;;;;;51.58;26.33;;;;;;;;;;5089801;28;20126;-65
2021/12/11 13:17:00;;;;;;;51.53;24.85;;;;;;;;;;5086478;28;20043;-64
2021/12/11 13:19:28;;;;;;;52.13;26.67;;;;;;;;;;5095462;28;20061;-65
2021/12/11 13:21:59;;;;;;;53.90;28.25;;;;;;;;;;5089838;28;20105;-65
2021/12/11 13:24:25;;;;;;;46.45;25.70;;;;;;;;;;5091127;28;20040;-65
2021/12/11 13:26:54;;;;;;;46.25;26.10;;;;;;;;;;5091846;28;20040;-65
2021/12/11 13:29:26;;;;;;;48.85;26.42;;;;;;;;;;5090817;28;20040;-65
2021/12/11 13:32:04;;;;;;;50.08;26.70;;;;;;;;;;5091077;28;20089;-65
2021/12/11 13:34:32;;;;;;;50.47;26.23;;;;;;;;;;5088744;28;20093;-64
2021/12/11 13:36:59;;;;;;;55.90;28.75;;;;;;;;;;5089646;28;20039;-65
2021/12/11 13:39:25;;;;;;;57.60;28.13;;;;;;;;;;5089887;28;20070;-64
2021/12/11 13:41:59;;;;;;;50.67;27.85;;;;;;;;;;5089742;28;20036;-64
2021/12/11 13:44:27;;;;;;;52.78;29.02;;;;;;;;;;5085850;28;20036;-64
2021/12/11 13:46:53;;;;;;;47.03;26.23;;;;;;;;;;5087132;28;20448;-64
2021/12/11 13:49:19;;;;;;;43.83;27.40;;;;;;;;;;5091091;28;20040;-64
2021/12/11 13:51:47;;;;;;;47.25;26.10;;;;;;;;;;5087486;28;20111;-64
2021/12/11 13:54:13;;;;;;;48.25;27.02;;;;;;;;;;5085830;28;20417;-64
2021/12/11 13:56:50;;;;;;;38.95;24.00;;;;;;;;;;5088691;28;20047;-64
2021/12/11 13:59:18;;;;;;;50.25;23.40;;;;;;;;;;5090717;28;20052;-64
2021/12/11 14:01:44;;;;;;;52.47;23.45;;;;;;;;;;5091056;28;20090;-64
2021/12/11 14:04:12;;;;;;;55.97;23.75;;;;;;;;;;5090042;28;20043;-64
2021/12/11 14:06:47;;;;;;;58.58;24.83;;;;;;;;;;5088793;28;20169;-64
2021/12/11 14:09:14;;;;;;;62.97;25.15;;;;;;;;;;5078537;28;20036;-64
2021/12/11 14:11:40;;;;;;;63.90;24.90;;;;;;;;;;5088551;28;20051;-64
2021/12/11 14:14:10;;;;;;;80.60;26.70;;;;;;;;;;5085435;28;20130;-64
2021/12/11 14:16:36;;;;;;;75.35;25.00;;;;;;;;;;5088541;28;20040;-64
2021/12/11 14:19:03;;;;;;;96.53;27.10;;;;;;;;;;5090726;28;20040;-64
2021/12/11 14:21:29;;;;;;;71.85;23.50;;;;;;;;;;5087516;28;20051;-64
2021/12/11 14:23:55;;;;;;;65.72;23.50;;;;;;;;;;5088204;28;20104;-64
2021/12/11 14:26:23;;;;;;;129.98;27.63;;;;;;;;;;5090089;28;20044;-64
2021/12/11 14:28:54;;;;;;;86.65;22.83;;;;;;;;;;5089860;28;20040;-64
2021/12/11 14:31:24;;;;;;;79.38;21.63;;;;;;;;;;5090482;28;20071;-64
2021/12/11 14:33:51;;;;;;;93.30;23.67;;;;;;;;;;5089534;28;20445;-64
2021/12/11 14:36:19;;;;;;;86.82;22.83;;;;;;;;;;5090160;28;20486;-64
2021/12/11 14:38:46;;;;;;;92.18;24.17;;;;;;;;;;5089305;28;20047;-64
2021/12/11 14:41:13;;;;;;;89.43;21.42;;;;;;;;;;5085918;28;20075;-65
2021/12/11 14:43:39;;;;;;;96.47;24.08;;;;;;;;;;5089782;28;20028;-64
2021/12/11 14:46:06;;;;;;;95.68;23.20;;;;;;;;;;5084513;28;20569;-64
2021/12/11 14:48:32;;;;;;;100.93;23.52;;;;;;;;;;5089107;28;20505;-64